.
WxDataArchive / Data Records for 2009-05-01
2009-04-30 May 2009 2009-05-02

Data Records for Friday, 01 May 2009

Time	Temp	Chill	HIndex	Humid	Dewpt	 Wind 	HiWind	WindDir	Rain 	Barom 
-----	----	-----	------	-----	-----	------	------	-------	-----	----- 
00:00	60.7	60.7	60.7	86	56.5	1	3	248	0.00	29.884 
00:05	60.5	60.5	60.5	86	56.3	0	1	248	0.00	29.884 
00:10	60.5	60.5	60.5	87	56.6	0	2	248	0.00	29.884 
00:15	60.5	60.5	60.5	87	56.6	0	1	248	0.00	29.886 
00:20	60.5	60.5	60.5	88	56.9	0	1	248	0.00	29.886 
00:25	60.4	60.4	60.4	88	56.8	0	1	248	0.00	29.886 
00:30	60.4	60.4	60.4	88	56.8	0	1	248	0.00	29.883 
00:35	60.2	60.2	60.2	88	56.6	0	1	248	0.00	29.883 
00:40	60.2	60.2	60.2	88	56.6	0	1	248	0.00	29.883 
00:45	60.1	60.1	60.1	89	56.8	0	1	248	0.00	29.877 
00:50	60.1	60.1	60.1	89	56.8	0	1	248	0.00	29.877 
00:55	59.9	59.9	59.9	89	56.6	0	1	248	0.00	29.877 
01:00	59.9	59.9	59.9	90	57.0	0	0	---	0.00	29.879 
01:05	59.8	59.8	59.8	90	56.9	0	0	---	0.00	29.879 
01:10	59.6	59.6	59.6	90	56.7	0	0	---	0.00	29.879 
01:15	59.5	59.5	59.5	90	56.6	0	0	---	0.00	29.876 
01:20	59.3	59.3	59.3	91	56.7	0	1	248	0.00	29.876 
01:25	59.3	59.3	59.3	91	56.7	0	2	248	0.00	29.876 
01:30	59.3	59.3	59.3	91	56.7	0	1	248	0.00	29.875 
01:35	59.5	59.5	59.5	92	57.2	0	1	248	0.00	29.875 
01:40	59.5	59.5	59.5	92	57.2	0	0	---	0.00	29.875 
01:45	59.5	59.5	59.5	92	57.2	0	1	248	0.00	29.873 
01:50	59.3	59.3	59.3	92	57.0	0	0	---	0.00	29.873 
01:55	59.3	59.3	59.3	92	57.0	0	1	248	0.00	29.873 
02:00	59.3	59.3	59.3	92	57.0	0	0	---	0.00	29.876 
02:05	59.3	59.3	59.3	92	57.0	0	0	---	0.00	29.876 
02:10	59.3	59.3	59.3	92	57.0	0	0	---	0.00	29.876 
02:15	59.2	59.2	59.2	92	56.9	0	1	248	0.00	29.874 
02:20	59.3	59.3	59.3	92	57.0	0	1	248	0.00	29.874 
02:25	59.3	59.3	59.3	93	57.3	0	1	248	0.00	29.874 
02:30	59.3	59.3	59.3	93	57.3	0	1	248	0.00	29.875 
02:35	59.5	59.5	59.5	93	57.5	0	1	248	0.00	29.875 
02:40	59.5	59.5	59.5	93	57.5	0	2	248	0.00	29.875 
02:45	59.5	59.5	59.5	93	57.5	0	2	248	0.00	29.878 
02:50	59.6	59.6	59.6	93	57.6	0	1	248	0.00	29.878 
02:55	59.8	59.8	59.8	93	57.8	0	2	248	0.00	29.878 
03:00	59.9	59.9	59.9	93	57.9	0	3	248	0.00	29.877 
03:05	60.1	60.1	60.1	93	58.1	1	3	248	0.00	29.877 
03:10	60.2	60.2	60.2	93	58.2	1	3	248	0.00	29.877 
03:15	60.4	60.4	60.4	93	58.4	0	2	248	0.00	29.871 
03:20	60.5	60.5	60.5	93	58.5	0	2	248	0.00	29.871 
03:25	60.7	60.7	60.7	93	58.7	1	3	248	0.00	29.871 
03:30	60.9	60.9	60.9	94	59.2	0	2	248	0.00	29.869 
03:35	61.0	61.0	61.0	94	59.3	1	4	248	0.00	29.869 
03:40	61.0	61.0	61.0	94	59.3	0	2	248	0.00	29.869 
03:45	61.2	61.2	61.2	94	59.5	1	3	270	0.00	29.860 
03:50	61.3	61.3	61.3	94	59.6	1	3	270	0.00	29.860 
03:55	61.3	61.3	61.3	94	59.6	0	3	270	0.00	29.860 
04:00	61.3	61.3	61.3	94	59.6	1	3	270	0.00	29.856 
04:05	61.5	61.5	61.5	94	59.8	1	3	270	0.00	29.856 
04:10	61.5	61.5	61.5	94	59.8	1	2	248	0.00	29.856 
04:15	61.5	61.5	61.5	94	59.8	0	3	248	0.00	29.855 
04:20	61.5	61.5	61.5	94	59.8	1	2	248	0.00	29.855 
04:25	61.6	61.6	61.6	94	59.9	2	4	248	0.00	29.855 
04:30	61.8	61.8	61.8	94	60.1	2	4	248	0.00	29.855 
04:35	62.0	62.0	62.0	94	60.2	1	7	248	0.00	29.855 
04:40	62.0	62.0	62.0	94	60.2	2	5	248	0.00	29.855 
04:45	62.0	62.0	62.0	94	60.2	1	3	248	0.00	29.858 
04:50	62.1	62.1	62.1	94	60.3	1	4	248	0.00	29.858 
04:55	62.1	62.1	62.1	94	60.3	0	3	248	0.00	29.858 
05:00	62.1	62.1	62.1	94	60.3	1	5	248	0.00	29.860 
05:05	62.1	62.1	62.1	93	60.0	1	4	248	0.00	29.860 
05:10	62.1	62.1	62.1	93	60.0	1	4	248	0.00	29.860 
05:15	62.3	62.3	62.3	93	60.2	1	3	248	0.00	29.862 
05:20	62.3	62.3	62.3	93	60.2	1	3	248	0.00	29.862 
05:25	62.3	62.3	62.3	93	60.2	1	3	248	0.00	29.862 
05:30	62.3	62.3	62.3	93	60.2	1	3	248	0.00	29.861 
05:35	62.3	62.3	62.3	93	60.2	1	5	270	0.00	29.861 
05:40	62.3	62.3	62.3	93	60.2	1	3	248	0.00	29.861 
05:45	62.4	62.4	62.4	93	60.3	1	4	248	0.00	29.864 
05:50	62.4	62.4	62.4	93	60.3	1	7	270	0.00	29.864 
05:55	62.4	62.4	62.4	93	60.3	1	3	248	0.00	29.864 
06:00	62.4	62.4	62.4	93	60.3	2	4	248	0.00	29.867 
06:05	62.4	62.4	62.4	93	60.3	1	2	248	0.00	29.867 
06:10	62.3	62.3	62.3	93	60.2	0	2	270	0.00	29.867 
06:15	62.1	62.1	62.1	93	60.0	1	2	270	0.00	29.868 
06:20	62.1	62.1	62.1	93	60.0	1	3	248	0.00	29.868 
06:25	62.1	62.1	62.1	93	60.0	1	4	248	0.00	29.868 
06:30	62.1	62.1	62.1	93	60.0	1	3	248	0.00	29.870 
06:35	62.0	62.0	62.0	93	59.9	1	4	248	0.00	29.870 
06:40	62.0	62.0	62.0	93	59.9	1	3	248	0.00	29.870 
06:45	61.6	61.6	61.6	93	59.6	0	2	248	0.00	29.880 
06:50	61.6	61.6	61.6	93	59.6	1	2	248	0.00	29.880 
06:55	61.5	61.5	61.5	93	59.5	0	1	248	0.00	29.880 
07:00	61.3	61.3	61.3	93	59.3	1	3	248	0.00	29.884 
07:05	61.2	61.2	61.2	93	59.2	0	3	248	0.00	29.884 
07:10	61.0	61.0	61.0	93	59.0	0	2	248	0.00	29.884 
07:15	61.0	61.0	61.0	93	59.0	0	2	248	0.00	29.885 
07:20	60.9	60.9	60.9	93	58.9	0	1	248	0.00	29.885 
07:25	60.7	60.7	60.7	93	58.7	0	1	248	0.00	29.885 
07:30	60.7	60.7	60.7	93	58.7	0	1	248	0.00	29.887 
07:35	60.7	60.7	60.7	93	58.7	0	2	248	0.00	29.887 
07:40	60.7	60.7	60.7	93	58.7	0	2	248	0.00	29.887 
07:45	61.0	61.0	61.0	93	59.0	0	1	248	0.00	29.893 
07:50	61.2	61.2	61.2	93	59.2	0	2	248	0.00	29.893 
07:55	61.5	61.5	61.5	93	59.5	1	3	248	0.00	29.893 
08:00	61.6	61.6	61.6	92	59.2	1	2	248	0.00	29.902 
08:05	62.0	62.0	62.0	92	59.6	1	3	248	0.00	29.902 
08:10	62.1	62.1	62.1	91	59.4	1	3	248	0.00	29.902 
08:15	62.3	62.3	62.3	90	59.3	2	4	248	0.00	29.905 
08:20	62.4	62.4	62.4	89	59.1	1	4	338	0.00	29.905 
08:25	62.4	62.4	62.4	88	58.8	2	4	270	0.00	29.905 
08:30	62.7	62.7	62.7	87	58.8	2	4	248	0.00	29.906 
08:35	62.9	62.9	62.9	86	58.6	2	5	248	0.00	29.906 
08:40	63.1	63.1	63.1	85	58.5	2	5	248	0.00	29.906 
08:45	62.9	62.9	62.9	83	57.7	2	5	270	0.00	29.917 
08:50	62.7	62.7	62.7	81	56.8	2	5	270	0.00	29.917 
08:55	63.2	63.2	63.2	81	57.3	2	5	292	0.00	29.917 
09:00	63.4	63.4	63.4	80	57.1	2	4	315	0.00	29.927 
09:05	63.1	63.1	63.1	77	55.8	3	6	315	0.00	29.927 
09:10	63.4	63.4	63.4	79	56.8	2	7	338	0.00	29.927 
09:15	63.7	63.7	63.7	76	56.0	2	4	270	0.00	29.929 
09:20	63.7	63.7	63.7	75	55.6	2	4	315	0.00	29.929 
09:25	63.9	63.9	63.9	75	55.8	1	3	315	0.00	29.929 
09:30	63.9	63.9	63.9	75	55.8	2	5	248	0.00	29.926 
09:35	63.7	63.7	63.7	75	55.6	1	5	270	0.00	29.926 
09:40	64.2	64.2	64.2	74	55.7	1	2	270	0.00	29.926 
09:45	64.3	64.3	64.3	71	54.7	2	6	270	0.00	29.922 
09:50	64.3	64.3	64.3	70	54.3	2	4	270	0.00	29.922 
09:55	64.0	64.0	64.0	69	53.6	2	6	338	0.00	29.922 
10:00	64.0	64.0	64.0	69	53.6	3	5	338	0.00	29.934 
10:05	64.0	64.0	64.0	69	53.6	2	5	338	0.00	29.934 
10:10	63.9	63.9	63.9	70	53.9	2	6	270	0.00	29.934 
10:15	63.4	63.4	63.4	69	53.0	3	6	270	0.00	29.939 
10:20	62.9	62.9	62.9	65	50.9	3	6	270	0.00	29.939 
10:25	62.7	62.7	62.7	64	50.3	2	5	315	0.00	29.939 
10:30	62.7	62.7	62.7	61	49.1	2	4	270	0.00	29.938 
10:35	63.1	63.1	63.1	58	48.1	2	7	292	0.00	29.938 
10:40	63.7	63.7	63.7	58	48.6	2	4	315	0.00	29.938 
10:45	63.9	63.9	63.9	58	48.8	2	4	315	0.00	29.937 
10:50	63.7	63.7	63.7	56	47.7	2	5	270	0.00	29.937 
10:55	63.4	63.4	63.4	55	46.9	2	5	338	0.00	29.937 
11:00	63.4	63.4	63.4	55	46.9	2	6	338	0.00	29.939 
11:05	63.4	63.4	63.4	55	46.9	2	6	338	0.00	29.939 
11:10	64.0	64.0	64.0	55	47.5	1	3	315	0.00	29.939 
11:15	64.7	64.7	64.7	56	48.6	1	3	270	0.00	29.934 
11:20	65.0	65.0	65.0	51	46.4	3	6	270	0.00	29.934 
11:25	64.5	64.5	64.5	51	46.0	2	4	270	0.00	29.934 
11:30	64.3	64.3	64.3	54	47.3	1	3	270	0.00	29.938 
11:35	64.3	64.3	64.3	53	46.8	2	4	315	0.00	29.938 
11:40	64.5	64.5	64.5	53	47.0	2	6	270	0.00	29.938 
11:45	64.8	64.8	64.8	55	48.2	1	3	338	0.00	29.922 
11:50	65.3	65.3	65.3	56	49.2	1	2	315	0.00	29.922 
11:55	65.8	65.8	65.8	55	49.2	1	3	315	0.00	29.922 
12:00	66.4	66.4	66.4	56	50.2	1	3	248	0.00	29.923 
12:05	66.8	66.8	66.8	52	48.6	1	3	248	0.00	29.923 
12:10	66.9	66.9	66.9	53	49.2	2	4	248	0.00	29.923 
12:15	67.1	67.1	67.1	51	48.4	2	4	248	0.00	29.928 
12:20	67.6	67.6	67.6	50	48.3	2	5	270	0.00	29.928 
12:25	67.1	67.1	67.1	47	46.2	3	6	248	0.00	29.928 
12:30	66.6	66.6	66.6	53	48.9	1	4	270	0.00	29.926 
12:35	66.9	66.9	66.9	50	47.6	2	6	270	0.00	29.926 
12:40	66.6	66.6	66.6	49	46.8	3	5	248	0.00	29.926 
12:45	66.8	66.8	66.8	52	48.6	2	4	248	0.00	29.928 
12:50	66.6	66.6	66.6	50	47.4	2	5	270	0.00	29.928 
12:55	67.1	67.1	67.1	52	48.9	2	5	270	0.00	29.928 
13:00	67.8	67.8	67.8	48	47.4	3	7	270	0.00	29.919 
13:05	67.8	67.8	67.8	47	46.8	3	6	270	0.00	29.919 
13:10	67.9	67.9	67.9	48	47.5	3	7	270	0.00	29.919 
13:15	67.1	67.1	67.1	46	45.6	3	6	270	0.00	29.933 
13:20	66.1	66.1	66.1	49	46.4	3	6	248	0.00	29.933 
13:25	65.6	65.6	65.6	51	47.0	2	4	270	0.00	29.933 
13:30	65.5	65.5	65.5	52	47.4	2	4	248	0.00	29.924 
13:35	65.5	65.5	65.5	51	46.9	2	6	248	0.00	29.924 
13:40	65.3	65.3	65.3	49	45.6	3	9	270	0.00	29.924 
13:45	65.0	65.0	65.0	51	46.4	3	6	270	0.00	29.926 
13:50	64.5	64.5	64.5	51	46.0	2	6	292	0.00	29.926 
13:55	64.3	64.3	64.3	52	46.3	1	4	270	0.00	29.926 
14:00	64.2	64.2	64.2	52	46.2	2	4	270	0.00	29.929 
14:05	63.9	63.9	63.9	52	45.9	2	4	315	0.00	29.929 
14:10	63.7	63.7	63.7	53	46.2	2	5	292	0.00	29.929 
14:15	63.4	63.4	63.4	53	46.0	3	7	315	0.00	29.929 
14:20	63.4	63.4	63.4	53	46.0	3	6	315	0.00	29.929 
14:25	63.4	63.4	63.4	54	46.5	2	5	270	0.00	29.929 
14:30	63.1	63.1	63.1	54	46.2	3	5	292	0.00	29.934 
14:35	62.6	62.6	62.6	55	46.2	2	4	270	0.00	29.934 
14:40	62.1	62.1	62.1	53	44.8	2	6	270	0.00	29.934 
14:45	61.8	61.8	61.8	54	45.0	2	6	270	0.00	29.938 
14:50	61.6	61.6	61.6	55	45.3	2	5	270	0.00	29.938 
14:55	61.6	61.6	61.6	57	46.2	1	3	338	0.00	29.938 
15:00	61.3	61.3	61.3	57	45.9	2	4	315	0.00	29.934 
15:05	61.2	61.2	61.2	57	45.8	2	5	338	0.00	29.934 
15:10	60.9	60.9	60.9	57	45.6	1	4	338	0.00	29.934 
15:15	60.7	60.7	60.7	57	45.4	1	4	315	0.00	29.940 
15:20	60.5	60.5	60.5	58	45.6	2	6	338	0.00	29.940 
15:25	60.2	60.2	60.2	57	44.9	2	4	315	0.00	29.940 
15:30	60.1	60.1	60.1	56	44.3	2	4	315	0.00	29.954 
15:35	59.9	59.9	59.9	57	44.6	3	9	270	0.00	29.954 
15:40	59.6	59.6	59.6	58	44.8	2	6	292	0.00	29.954 
15:45	59.3	59.3	59.3	60	45.4	2	7	270	0.00	29.961 
15:50	58.7	58.7	58.7	65	47.0	2	4	292	0.00	29.961 
15:55	58.0	58.0	58.0	70	48.3	1	3	315	0.00	29.961 
16:00	57.0	57.0	57.0	72	48.1	1	4	270	0.01	29.964 
16:05	56.5	56.5	56.5	74	48.3	1	3	338	0.00	29.964 
16:10	55.9	55.9	55.9	79	49.5	0	3	0	0.01	29.964 
16:15	55.4	55.4	55.4	81	49.7	0	2	0	0.01	29.955 
16:20	55.0	55.0	55.0	83	49.9	0	2	248	0.01	29.955 
16:25	54.5	54.5	54.5	85	50.1	0	2	315	0.01	29.955 
16:30	54.4	54.4	54.4	87	50.6	0	1	315	0.00	29.943 
16:35	54.2	54.2	54.2	87	50.4	0	1	315	0.00	29.943 
16:40	54.1	54.1	54.1	88	50.6	0	1	315	0.00	29.943 
16:45	53.9	53.9	53.9	88	50.4	0	1	315	0.00	29.945 
16:50	53.9	53.9	53.9	88	50.4	0	1	315	0.00	29.945 
16:55	54.1	54.1	54.1	89	50.9	0	1	315	0.00	29.945 
17:00	54.1	54.1	54.1	89	50.9	0	1	315	0.00	29.941 
17:05	54.4	54.4	54.4	89	51.2	0	2	315	0.00	29.941 
17:10	54.4	54.4	54.4	88	50.9	0	3	315	0.00	29.941 
17:15	54.4	54.4	54.4	87	50.6	0	2	315	0.00	29.946 
17:20	54.4	54.4	54.4	87	50.6	0	2	315	0.00	29.946 
17:25	54.5	54.5	54.5	87	50.7	0	3	292	0.01	29.946 
17:30	54.5	54.5	54.5	87	50.7	1	3	248	0.00	29.959 
17:35	54.4	54.4	54.4	87	50.6	0	1	248	0.00	29.959 
17:40	54.4	54.4	54.4	87	50.6	0	1	248	0.00	29.959 
17:45	54.7	54.7	54.7	87	50.9	0	1	248	0.01	29.956 
17:50	55.0	55.0	55.0	86	50.9	0	2	248	0.00	29.956 
17:55	55.1	55.1	55.1	84	50.4	1	5	248	0.00	29.956 
18:00	55.3	55.3	55.3	81	49.6	1	2	248	0.00	29.960 
18:05	55.6	55.6	55.6	80	49.5	1	2	248	0.00	29.960 
18:10	55.6	55.6	55.6	77	48.5	1	2	248	0.00	29.960 
18:15	55.6	55.6	55.6	76	48.2	0	2	248	0.00	29.953 
18:20	55.6	55.6	55.6	77	48.5	1	2	248	0.00	29.953 
18:25	55.7	55.7	55.7	77	48.6	0	3	248	0.00	29.953 
18:30	55.6	55.6	55.6	76	48.2	1	3	248	0.00	29.959 
18:35	55.6	55.6	55.6	76	48.2	0	1	248	0.00	29.959 
18:40	55.7	55.7	55.7	75	47.9	1	3	248	0.00	29.959 
18:45	55.7	55.7	55.7	76	48.3	1	4	248	0.00	29.961 
18:50	55.6	55.6	55.6	75	47.8	0	2	248	0.00	29.961 
18:55	55.6	55.6	55.6	76	48.2	0	1	248	0.00	29.961 
19:00	55.4	55.4	55.4	76	48.0	0	1	248	0.00	29.949 
19:05	55.4	55.4	55.4	74	47.3	1	3	248	0.00	29.949 
19:10	55.4	55.4	55.4	71	46.2	1	3	270	0.00	29.949 
19:15	55.3	55.3	55.3	69	45.3	0	4	292	0.00	29.954 
19:20	55.0	55.0	55.0	68	44.6	0	2	0	0.00	29.954 
19:25	54.8	54.8	54.8	69	44.8	0	2	0	0.00	29.954 
19:30	54.7	54.7	54.7	68	44.3	1	3	315	0.00	29.963 
19:35	54.7	54.7	54.7	69	44.7	1	3	292	0.00	29.963 
19:40	54.7	54.7	54.7	68	44.3	1	3	292	0.00	29.963 
19:45	54.7	54.7	54.7	68	44.3	1	4	315	0.00	29.962 
19:50	54.7	54.7	54.7	69	44.7	1	3	315	0.00	29.962 
19:55	54.5	54.5	54.5	67	43.8	2	4	315	0.00	29.962 
20:00	54.1	54.1	54.1	68	43.8	2	4	270	0.00	29.969 
20:05	53.8	53.8	53.8	68	43.5	2	6	338	0.00	29.969 
20:10	53.5	53.5	53.5	68	43.2	2	4	315	0.00	29.969 
20:15	53.3	53.3	53.3	69	43.4	2	4	292	0.00	29.977 
20:20	53.2	53.2	53.2	71	44.0	1	3	225	0.00	29.977 
20:25	53.2	53.2	53.2	71	44.0	1	3	315	0.00	29.977 
20:30	53.2	53.2	53.2	72	44.4	1	3	225	0.00	29.980 
20:35	53.1	53.1	53.1	73	44.7	1	5	248	0.00	29.980 
20:40	52.6	52.6	52.6	72	43.8	2	7	338	0.00	29.980 
20:45	52.2	52.2	52.2	73	43.8	2	6	315	0.00	29.982 
20:50	51.7	51.7	51.7	73	43.3	1	3	292	0.00	29.982 
20:55	51.4	51.4	51.4	73	43.0	0	3	292	0.00	29.982 
21:00	51.1	51.1	51.1	74	43.1	0	1	292	0.00	29.994 
21:05	50.8	50.8	50.8	74	42.8	1	3	315	0.00	29.994 
21:10	50.7	50.7	50.7	74	42.7	0	2	315	0.00	29.994 
21:15	50.5	50.5	50.5	74	42.5	0	2	315	0.00	30.006 
21:20	50.5	50.5	50.5	73	42.2	0	2	315	0.00	30.006 
21:25	50.4	50.4	50.4	73	42.1	0	2	248	0.00	30.006 
21:30	50.4	50.4	50.4	73	42.1	0	2	315	0.00	30.018 
21:35	50.1	50.1	50.1	73	41.8	0	2	315	0.00	30.018 
21:40	49.9	49.9	49.9	73	41.6	0	1	315	0.00	30.018 
21:45	49.8	49.8	49.8	74	41.9	0	0	---	0.00	30.026 
21:50	49.5	49.5	49.5	75	41.9	0	1	315	0.00	30.026 
21:55	49.2	49.2	49.2	76	42.0	0	1	315	0.00	30.026 
22:00	49.1	49.1	49.1	76	41.9	0	1	315	0.00	30.036 
22:05	48.9	48.9	48.9	77	42.0	0	1	315	0.00	30.036 
22:10	48.8	48.8	48.8	77	41.9	0	1	315	0.00	30.036 
22:15	48.6	48.6	48.6	77	41.7	0	0	---	0.00	30.039 
22:20	48.5	48.5	48.5	78	42.0	0	0	---	0.00	30.039 
22:25	48.3	48.3	48.3	78	41.8	0	0	---	0.00	30.039 
22:30	48.0	48.0	48.0	79	41.8	0	0	---	0.00	30.043 
22:35	47.7	47.7	47.7	79	41.5	0	0	---	0.00	30.043 
22:40	47.4	47.4	47.4	80	41.5	0	0	---	0.00	30.043 
22:45	47.1	47.1	47.1	81	41.6	0	0	---	0.00	30.039 
22:50	46.8	46.8	46.8	81	41.3	0	0	---	0.00	30.039 
22:55	46.5	46.5	46.5	81	41.0	0	0	---	0.00	30.039 
23:00	46.1	46.1	46.1	82	40.9	0	0	---	0.00	30.041 
23:05	45.8	45.8	45.8	82	40.6	0	0	---	0.00	30.041 
23:10	45.5	45.5	45.5	83	40.6	0	0	---	0.00	30.041 
23:15	45.2	45.2	45.2	84	40.7	0	0	---	0.00	30.038 
23:20	44.9	44.9	44.9	85	40.7	0	0	---	0.00	30.038 
23:25	44.6	44.6	44.6	86	40.7	0	0	---	0.00	30.038 
23:30	44.3	44.3	44.3	87	40.7	0	0	---	0.00	30.035 
23:35	44.2	44.2	44.2	87	40.6	0	0	---	0.00	30.035 
23:40	44.1	44.1	44.1	88	40.8	0	0	---	0.00	30.035 
23:45	43.9	43.9	43.9	88	40.6	0	0	---	0.00	30.030 
23:50	43.6	43.6	43.6	89	40.6	0	0	---	0.00	30.030 
23:55	43.5	43.5	43.5	89	40.5	0	0	---	0.00	30.030 

CoCoRaHS
IN-AL-39
A2 Web Hosting
Creative Commons License
GoDaddy
search engine by freefind advanced

loaded 2018-11-20 14:36:00 • last modified 2010-11-18 10:43:29
Privacy PolicyDisclaimer
• wx.awcolley.com is powered by PmWiki v.2002016 •
• all content (unless otherwise noted) © 2018 A W Colley